sensor_id;sensor_type;location;lat;lon;timestamp;P1;durP1;ratioP1;P2;durP2;ratioP2
43664;SDS011;29263;48.172;11.484;2022-12-18T00:00:58;32.67;;;15.67;;
43664;SDS011;29263;48.172;11.484;2022-12-18T00:03:23;29.47;;;15.00;;
43664;SDS011;29263;48.172;11.484;2022-12-18T00:05:50;38.90;;;17.17;;
43664;SDS011;29263;48.172;11.484;2022-12-18T00:08:17;33.13;;;16.23;;
43664;SDS011;29263;48.172;11.484;2022-12-18T00:10:43;36.80;;;15.63;;
43664;SDS011;29263;48.172;11.484;2022-12-18T00:13:10;30.93;;;14.70;;
43664;SDS011;29263;48.172;11.484;2022-12-18T00:15:37;35.33;;;16.70;;
43664;SDS011;29263;48.172;11.484;2022-12-18T00:18:04;31.17;;;15.33;;
43664;SDS011;29263;48.172;11.484;2022-12-18T00:20:30;40.10;;;16.70;;
43664;SDS011;29263;48.172;11.484;2022-12-18T00:22:55;31.13;;;15.13;;
43664;SDS011;29263;48.172;11.484;2022-12-18T00:25:21;35.37;;;16.50;;
43664;SDS011;29263;48.172;11.484;2022-12-18T00:27:47;33.50;;;16.80;;
43664;SDS011;29263;48.172;11.484;2022-12-18T00:30:13;35.63;;;15.77;;
43664;SDS011;29263;48.172;11.484;2022-12-18T00:32:38;36.20;;;17.53;;
43664;SDS011;29263;48.172;11.484;2022-12-18T00:35:05;33.73;;;14.67;;
43664;SDS011;29263;48.172;11.484;2022-12-18T00:37:33;37.13;;;15.60;;
43664;SDS011;29263;48.172;11.484;2022-12-18T00:39:59;35.20;;;15.20;;
43664;SDS011;29263;48.172;11.484;2022-12-18T00:42:25;33.37;;;15.53;;
43664;SDS011;29263;48.172;11.484;2022-12-18T00:45:09;34.03;;;14.93;;
43664;SDS011;29263;48.172;11.484;2022-12-18T00:47:35;37.27;;;14.93;;
43664;SDS011;29263;48.172;11.484;2022-12-18T00:50:00;34.10;;;15.27;;
43664;SDS011;29263;48.172;11.484;2022-12-18T00:52:26;38.20;;;15.93;;
43664;SDS011;29263;48.172;11.484;2022-12-18T00:54:52;28.93;;;14.47;;
43664;SDS011;29263;48.172;11.484;2022-12-18T00:57:17;34.67;;;14.67;;
43664;SDS011;29263;48.172;11.484;2022-12-18T00:59:43;36.60;;;15.63;;
43664;SDS011;29263;48.172;11.484;2022-12-18T01:02:08;36.57;;;15.33;;
43664;SDS011;29263;48.172;11.484;2022-12-18T01:04:34;30.53;;;14.37;;
43664;SDS011;29263;48.172;11.484;2022-12-18T01:07:00;38.23;;;17.00;;
43664;SDS011;29263;48.172;11.484;2022-12-18T01:09:25;30.83;;;14.70;;
43664;SDS011;29263;48.172;11.484;2022-12-18T01:11:51;34.90;;;15.47;;
43664;SDS011;29263;48.172;11.484;2022-12-18T01:14:17;33.57;;;15.57;;
43664;SDS011;29263;48.172;11.484;2022-12-18T01:16:42;34.97;;;14.77;;
43664;SDS011;29263;48.172;11.484;2022-12-18T01:19:08;33.80;;;14.03;;
43664;SDS011;29263;48.172;11.484;2022-12-18T01:21:33;28.17;;;13.90;;
43664;SDS011;29263;48.172;11.484;2022-12-18T01:23:59;35.20;;;13.57;;
43664;SDS011;29263;48.172;11.484;2022-12-18T01:26:25;33.17;;;14.80;;
43664;SDS011;29263;48.172;11.484;2022-12-18T01:28:53;35.10;;;14.47;;
43664;SDS011;29263;48.172;11.484;2022-12-18T01:31:22;27.70;;;12.32;;
43664;SDS011;29263;48.172;11.484;2022-12-18T01:33:50;29.52;;;13.10;;
43664;SDS011;29263;48.172;11.484;2022-12-18T01:36:18;32.60;;;14.00;;
43664;SDS011;29263;48.172;11.484;2022-12-18T01:38:48;35.07;;;14.57;;
43664;SDS011;29263;48.172;11.484;2022-12-18T01:41:15;34.27;;;14.10;;
43664;SDS011;29263;48.172;11.484;2022-12-18T01:43:44;30.67;;;14.07;;
43664;SDS011;29263;48.172;11.484;2022-12-18T01:46:15;33.90;;;14.17;;
43664;SDS011;29263;48.172;11.484;2022-12-18T01:48:43;34.63;;;14.73;;
43664;SDS011;29263;48.172;11.484;2022-12-18T01:51:11;32.95;;;14.50;;
43664;SDS011;29263;48.172;11.484;2022-12-18T01:53:39;36.63;;;15.13;;
43664;SDS011;29263;48.172;11.484;2022-12-18T01:56:06;32.40;;;14.23;;
43664;SDS011;29263;48.172;11.484;2022-12-18T02:01:18;36.33;;;15.13;;
43664;SDS011;29263;48.172;11.484;2022-12-18T02:03:46;35.97;;;14.02;;
43664;SDS011;29263;48.172;11.484;2022-12-18T02:06:20;32.43;;;14.43;;
43664;SDS011;29263;48.172;11.484;2022-12-18T02:09:15;32.73;;;14.13;;
43664;SDS011;29263;48.172;11.484;2022-12-18T02:11:49;34.27;;;13.97;;
43664;SDS011;29263;48.172;11.484;2022-12-18T02:19:33;32.03;;;14.87;;
43664;SDS011;29263;48.172;11.484;2022-12-18T02:25:15;33.77;;;13.97;;
43664;SDS011;29263;48.172;11.484;2022-12-18T02:28:01;34.03;;;13.63;;
43664;SDS011;29263;48.172;11.484;2022-12-18T02:30:31;33.93;;;14.33;;
43664;SDS011;29263;48.172;11.484;2022-12-18T02:33:00;31.60;;;14.07;;
43664;SDS011;29263;48.172;11.484;2022-12-18T02:35:28;34.60;;;15.32;;
43664;SDS011;29263;48.172;11.484;2022-12-18T02:37:55;32.37;;;13.53;;
43664;SDS011;29263;48.172;11.484;2022-12-18T02:40:23;34.93;;;14.17;;
43664;SDS011;29263;48.172;11.484;2022-12-18T02:42:51;37.20;;;16.20;;
43664;SDS011;29263;48.172;11.484;2022-12-18T02:45:17;33.67;;;15.17;;
43664;SDS011;29263;48.172;11.484;2022-12-18T02:47:43;34.87;;;14.93;;
43664;SDS011;29263;48.172;11.484;2022-12-18T02:50:35;34.35;;;14.23;;
43664;SDS011;29263;48.172;11.484;2022-12-18T03:01:24;37.15;;;16.27;;
43664;SDS011;29263;48.172;11.484;2022-12-18T03:04:11;38.80;;;16.03;;
43664;SDS011;29263;48.172;11.484;2022-12-18T03:06:41;40.20;;;17.10;;
43664;SDS011;29263;48.172;11.484;2022-12-18T03:09:13;41.87;;;16.60;;
43664;SDS011;29263;48.172;11.484;2022-12-18T03:11:45;37.60;;;16.03;;
43664;SDS011;29263;48.172;11.484;2022-12-18T03:14:34;38.63;;;16.40;;
43664;SDS011;29263;48.172;11.484;2022-12-18T03:17:03;35.67;;;15.35;;
43664;SDS011;29263;48.172;11.484;2022-12-18T03:19:37;37.63;;;15.87;;
43664;SDS011;29263;48.172;11.484;2022-12-18T03:22:04;34.13;;;15.50;;
43664;SDS011;29263;48.172;11.484;2022-12-18T03:24:33;36.55;;;15.85;;
43664;SDS011;29263;48.172;11.484;2022-12-18T03:27:00;39.33;;;16.27;;
43664;SDS011;29263;48.172;11.484;2022-12-18T03:29:33;36.93;;;15.53;;
43664;SDS011;29263;48.172;11.484;2022-12-18T03:32:05;40.60;;;16.50;;
43664;SDS011;29263;48.172;11.484;2022-12-18T03:34:35;36.87;;;16.60;;
43664;SDS011;29263;48.172;11.484;2022-12-18T03:37:05;41.57;;;16.40;;
43664;SDS011;29263;48.172;11.484;2022-12-18T03:39:31;33.10;;;15.63;;
43664;SDS011;29263;48.172;11.484;2022-12-18T03:44:32;39.50;;;16.77;;
43664;SDS011;29263;48.172;11.484;2022-12-18T03:47:15;36.73;;;16.60;;
43664;SDS011;29263;48.172;11.484;2022-12-18T03:49:55;37.60;;;15.20;;
43664;SDS011;29263;48.172;11.484;2022-12-18T03:52:37;33.33;;;16.00;;
43664;SDS011;29263;48.172;11.484;2022-12-18T03:55:07;33.73;;;15.23;;
43664;SDS011;29263;48.172;11.484;2022-12-18T03:57:34;36.37;;;17.30;;
43664;SDS011;29263;48.172;11.484;2022-12-18T04:00:06;41.60;;;16.53;;
43664;SDS011;29263;48.172;11.484;2022-12-18T04:02:37;36.47;;;15.03;;
43664;SDS011;29263;48.172;11.484;2022-12-18T04:05:05;39.97;;;16.50;;
43664;SDS011;29263;48.172;11.484;2022-12-18T04:07:33;36.07;;;15.87;;
43664;SDS011;29263;48.172;11.484;2022-12-18T04:09:59;30.63;;;14.93;;
43664;SDS011;29263;48.172;11.484;2022-12-18T04:12:28;40.37;;;16.97;;
43664;SDS011;29263;48.172;11.484;2022-12-18T04:14:54;34.27;;;16.20;;
43664;SDS011;29263;48.172;11.484;2022-12-18T04:17:20;36.57;;;16.07;;
43664;SDS011;29263;48.172;11.484;2022-12-18T04:19:46;38.70;;;15.63;;
43664;SDS011;29263;48.172;11.484;2022-12-18T04:22:12;36.67;;;16.20;;
43664;SDS011;29263;48.172;11.484;2022-12-18T04:24:37;33.70;;;15.37;;
43664;SDS011;29263;48.172;11.484;2022-12-18T04:27:03;35.87;;;15.40;;
43664;SDS011;29263;48.172;11.484;2022-12-18T04:29:28;36.70;;;15.93;;
43664;SDS011;29263;48.172;11.484;2022-12-18T04:31:54;37.27;;;15.67;;
43664;SDS011;29263;48.172;11.484;2022-12-18T04:34:20;36.23;;;16.30;;
43664;SDS011;29263;48.172;11.484;2022-12-18T04:36:46;33.90;;;15.40;;
43664;SDS011;29263;48.172;11.484;2022-12-18T04:39:12;33.07;;;14.80;;
43664;SDS011;29263;48.172;11.484;2022-12-18T04:41:37;34.50;;;15.53;;
43664;SDS011;29263;48.172;11.484;2022-12-18T04:44:03;39.77;;;15.87;;
43664;SDS011;29263;48.172;11.484;2022-12-18T04:46:29;33.97;;;14.60;;
43664;SDS011;29263;48.172;11.484;2022-12-18T04:48:55;28.63;;;13.33;;
43664;SDS011;29263;48.172;11.484;2022-12-18T04:51:20;33.53;;;14.23;;
43664;SDS011;29263;48.172;11.484;2022-12-18T04:53:46;33.53;;;15.47;;
43664;SDS011;29263;48.172;11.484;2022-12-18T04:56:13;32.47;;;15.17;;
43664;SDS011;29263;48.172;11.484;2022-12-18T04:58:40;37.87;;;15.57;;
43664;SDS011;29263;48.172;11.484;2022-12-18T05:01:07;32.13;;;14.10;;
43664;SDS011;29263;48.172;11.484;2022-12-18T05:03:33;30.37;;;13.27;;
43664;SDS011;29263;48.172;11.484;2022-12-18T05:06:00;35.23;;;14.67;;
43664;SDS011;29263;48.172;11.484;2022-12-18T05:08:25;32.90;;;15.57;;
43664;SDS011;29263;48.172;11.484;2022-12-18T05:10:58;34.00;;;15.57;;
43664;SDS011;29263;48.172;11.484;2022-12-18T05:13:42;33.57;;;14.87;;
43664;SDS011;29263;48.172;11.484;2022-12-18T05:16:09;33.00;;;14.07;;
43664;SDS011;29263;48.172;11.484;2022-12-18T05:18:35;31.90;;;14.20;;
43664;SDS011;29263;48.172;11.484;2022-12-18T05:21:01;33.63;;;13.93;;
43664;SDS011;29263;48.172;11.484;2022-12-18T05:23:27;29.40;;;14.63;;
43664;SDS011;29263;48.172;11.484;2022-12-18T05:25:56;28.13;;;13.63;;
43664;SDS011;29263;48.172;11.484;2022-12-18T05:28:23;28.63;;;13.67;;
43664;SDS011;29263;48.172;11.484;2022-12-18T05:30:51;33.57;;;14.70;;
43664;SDS011;29263;48.172;11.484;2022-12-18T05:33:18;30.87;;;13.53;;
43664;SDS011;29263;48.172;11.484;2022-12-18T05:35:49;29.83;;;14.13;;
43664;SDS011;29263;48.172;11.484;2022-12-18T05:38:16;29.90;;;13.80;;
43664;SDS011;29263;48.172;11.484;2022-12-18T05:40:42;34.57;;;15.40;;
43664;SDS011;29263;48.172;11.484;2022-12-18T05:43:08;32.30;;;14.07;;
43664;SDS011;29263;48.172;11.484;2022-12-18T05:45:36;29.67;;;14.07;;
43664;SDS011;29263;48.172;11.484;2022-12-18T05:48:05;36.93;;;14.97;;
43664;SDS011;29263;48.172;11.484;2022-12-18T05:50:35;31.37;;;14.27;;
43664;SDS011;29263;48.172;11.484;2022-12-18T05:55:27;32.50;;;13.83;;
43664;SDS011;29263;48.172;11.484;2022-12-18T05:57:53;33.00;;;14.70;;
43664;SDS011;29263;48.172;11.484;2022-12-18T06:00:18;29.33;;;13.50;;
43664;SDS011;29263;48.172;11.484;2022-12-18T06:02:47;30.37;;;13.63;;
43664;SDS011;29263;48.172;11.484;2022-12-18T06:05:13;34.42;;;15.13;;
43664;SDS011;29263;48.172;11.484;2022-12-18T06:07:39;27.43;;;13.80;;
43664;SDS011;29263;48.172;11.484;2022-12-18T06:10:04;28.67;;;12.10;;
43664;SDS011;29263;48.172;11.484;2022-12-18T06:12:30;28.50;;;13.20;;
43664;SDS011;29263;48.172;11.484;2022-12-18T06:14:58;31.07;;;13.80;;
43664;SDS011;29263;48.172;11.484;2022-12-18T06:17:27;34.97;;;13.93;;
43664;SDS011;29263;48.172;11.484;2022-12-18T06:19:56;34.67;;;14.60;;
43664;SDS011;29263;48.172;11.484;2022-12-18T06:22:22;30.50;;;13.17;;
43664;SDS011;29263;48.172;11.484;2022-12-18T06:24:48;28.53;;;13.17;;
43664;SDS011;29263;48.172;11.484;2022-12-18T06:27:14;32.70;;;13.73;;
43664;SDS011;29263;48.172;11.484;2022-12-18T06:29:40;30.30;;;13.00;;
43664;SDS011;29263;48.172;11.484;2022-12-18T06:32:05;33.90;;;14.40;;
43664;SDS011;29263;48.172;11.484;2022-12-18T06:34:31;27.27;;;12.53;;
43664;SDS011;29263;48.172;11.484;2022-12-18T06:36:57;28.43;;;12.10;;
43664;SDS011;29263;48.172;11.484;2022-12-18T06:39:23;25.67;;;12.37;;
43664;SDS011;29263;48.172;11.484;2022-12-18T06:41:48;25.73;;;12.50;;
43664;SDS011;29263;48.172;11.484;2022-12-18T06:44:14;32.73;;;13.47;;
43664;SDS011;29263;48.172;11.484;2022-12-18T06:46:39;30.63;;;13.03;;
43664;SDS011;29263;48.172;11.484;2022-12-18T06:49:05;24.53;;;11.93;;
43664;SDS011;29263;48.172;11.484;2022-12-18T06:51:31;33.73;;;14.13;;
43664;SDS011;29263;48.172;11.484;2022-12-18T06:53:57;28.93;;;13.17;;
43664;SDS011;29263;48.172;11.484;2022-12-18T06:56:22;31.87;;;14.13;;
43664;SDS011;29263;48.172;11.484;2022-12-18T06:58:51;27.50;;;12.93;;
43664;SDS011;29263;48.172;11.484;2022-12-18T07:01:17;30.17;;;13.75;;
43664;SDS011;29263;48.172;11.484;2022-12-18T07:03:43;27.80;;;13.40;;
43664;SDS011;29263;48.172;11.484;2022-12-18T07:06:16;30.10;;;13.70;;
43664;SDS011;29263;48.172;11.484;2022-12-18T07:08:44;27.67;;;13.10;;
43664;SDS011;29263;48.172;11.484;2022-12-18T07:11:11;31.20;;;13.47;;
43664;SDS011;29263;48.172;11.484;2022-12-18T07:13:37;30.47;;;13.37;;
43664;SDS011;29263;48.172;11.484;2022-12-18T07:16:03;26.27;;;11.87;;
43664;SDS011;29263;48.172;11.484;2022-12-18T07:18:50;24.07;;;11.87;;
43664;SDS011;29263;48.172;11.484;2022-12-18T07:21:16;32.20;;;13.00;;
43664;SDS011;29263;48.172;11.484;2022-12-18T07:23:43;27.77;;;12.97;;
43664;SDS011;29263;48.172;11.484;2022-12-18T07:26:12;27.33;;;13.17;;
43664;SDS011;29263;48.172;11.484;2022-12-18T07:28:39;24.77;;;11.40;;
43664;SDS011;29263;48.172;11.484;2022-12-18T07:31:07;28.13;;;12.37;;
43664;SDS011;29263;48.172;11.484;2022-12-18T07:33:35;31.77;;;12.75;;
43664;SDS011;29263;48.172;11.484;2022-12-18T07:36:01;32.70;;;13.63;;
43664;SDS011;29263;48.172;11.484;2022-12-18T07:38:28;27.60;;;11.60;;
43664;SDS011;29263;48.172;11.484;2022-12-18T07:40:54;26.70;;;12.33;;
43664;SDS011;29263;48.172;11.484;2022-12-18T07:43:20;26.37;;;11.47;;
43664;SDS011;29263;48.172;11.484;2022-12-18T07:45:48;26.87;;;12.27;;
43664;SDS011;29263;48.172;11.484;2022-12-18T07:48:14;28.63;;;12.25;;
43664;SDS011;29263;48.172;11.484;2022-12-18T07:50:40;23.90;;;11.87;;
43664;SDS011;29263;48.172;11.484;2022-12-18T07:53:05;21.90;;;11.27;;
43664;SDS011;29263;48.172;11.484;2022-12-18T07:55:31;28.07;;;12.00;;
43664;SDS011;29263;48.172;11.484;2022-12-18T07:57:57;31.27;;;12.53;;
43664;SDS011;29263;48.172;11.484;2022-12-18T08:00:26;24.88;;;12.63;;
43664;SDS011;29263;48.172;11.484;2022-12-18T08:02:51;28.30;;;12.83;;
43664;SDS011;29263;48.172;11.484;2022-12-18T08:05:17;27.90;;;11.50;;
43664;SDS011;29263;48.172;11.484;2022-12-18T08:07:42;27.43;;;12.50;;
43664;SDS011;29263;48.172;11.484;2022-12-18T08:10:08;26.17;;;12.07;;
43664;SDS011;29263;48.172;11.484;2022-12-18T08:12:34;29.83;;;12.43;;
43664;SDS011;29263;48.172;11.484;2022-12-18T08:14:59;27.10;;;12.33;;
43664;SDS011;29263;48.172;11.484;2022-12-18T08:17:25;31.40;;;13.10;;
43664;SDS011;29263;48.172;11.484;2022-12-18T08:19:51;27.03;;;12.93;;
43664;SDS011;29263;48.172;11.484;2022-12-18T08:22:16;27.87;;;11.43;;
43664;SDS011;29263;48.172;11.484;2022-12-18T08:24:42;29.03;;;12.77;;
43664;SDS011;29263;48.172;11.484;2022-12-18T08:27:08;29.37;;;13.07;;
43664;SDS011;29263;48.172;11.484;2022-12-18T08:29:33;32.83;;;13.90;;
43664;SDS011;29263;48.172;11.484;2022-12-18T08:31:59;30.00;;;13.67;;
43664;SDS011;29263;48.172;11.484;2022-12-18T08:34:24;32.30;;;14.30;;
43664;SDS011;29263;48.172;11.484;2022-12-18T08:36:50;27.83;;;13.37;;
43664;SDS011;29263;48.172;11.484;2022-12-18T08:39:16;26.47;;;13.00;;
43664;SDS011;29263;48.172;11.484;2022-12-18T08:41:41;26.73;;;12.77;;
43664;SDS011;29263;48.172;11.484;2022-12-18T08:44:07;26.13;;;12.43;;
43664;SDS011;29263;48.172;11.484;2022-12-18T08:46:51;28.90;;;13.63;;
43664;SDS011;29263;48.172;11.484;2022-12-18T08:49:17;27.43;;;12.30;;
43664;SDS011;29263;48.172;11.484;2022-12-18T08:51:43;30.93;;;14.07;;
43664;SDS011;29263;48.172;11.484;2022-12-18T08:54:10;29.90;;;13.13;;
43664;SDS011;29263;48.172;11.484;2022-12-18T08:56:38;28.63;;;13.90;;
43664;SDS011;29263;48.172;11.484;2022-12-18T08:59:04;27.37;;;12.27;;
43664;SDS011;29263;48.172;11.484;2022-12-18T09:01:30;32.57;;;14.53;;
43664;SDS011;29263;48.172;11.484;2022-12-18T09:03:55;25.00;;;12.27;;
43664;SDS011;29263;48.172;11.484;2022-12-18T09:06:21;28.43;;;13.27;;
43664;SDS011;29263;48.172;11.484;2022-12-18T09:08:47;25.93;;;12.40;;
43664;SDS011;29263;48.172;11.484;2022-12-18T09:11:15;29.90;;;13.17;;
43664;SDS011;29263;48.172;11.484;2022-12-18T09:13:48;25.13;;;11.47;;
43664;SDS011;29263;48.172;11.484;2022-12-18T09:16:15;26.77;;;12.43;;
43664;SDS011;29263;48.172;11.484;2022-12-18T09:18:40;27.77;;;11.73;;
43664;SDS011;29263;48.172;11.484;2022-12-18T09:21:13;21.30;;;10.43;;
43664;SDS011;29263;48.172;11.484;2022-12-18T09:23:40;25.30;;;12.10;;
43664;SDS011;29263;48.172;11.484;2022-12-18T09:26:06;25.73;;;11.27;;
43664;SDS011;29263;48.172;11.484;2022-12-18T09:28:32;25.37;;;11.87;;
43664;SDS011;29263;48.172;11.484;2022-12-18T09:30:57;27.30;;;11.77;;
43664;SDS011;29263;48.172;11.484;2022-12-18T09:33:23;25.50;;;11.40;;
43664;SDS011;29263;48.172;11.484;2022-12-18T09:35:49;25.20;;;10.97;;
43664;SDS011;29263;48.172;11.484;2022-12-18T09:38:16;23.67;;;11.40;;
43664;SDS011;29263;48.172;11.484;2022-12-18T09:40:44;20.80;;;10.50;;
43664;SDS011;29263;48.172;11.484;2022-12-18T09:43:17;23.07;;;11.77;;
43664;SDS011;29263;48.172;11.484;2022-12-18T09:45:46;25.40;;;11.13;;
43664;SDS011;29263;48.172;11.484;2022-12-18T09:48:22;22.10;;;11.77;;
43664;SDS011;29263;48.172;11.484;2022-12-18T09:50:50;22.00;;;10.30;;
43664;SDS011;29263;48.172;11.484;2022-12-18T09:53:21;21.15;;;10.10;;
43664;SDS011;29263;48.172;11.484;2022-12-18T09:55:50;22.33;;;10.30;;
43664;SDS011;29263;48.172;11.484;2022-12-18T09:58:26;20.20;;;10.37;;
43664;SDS011;29263;48.172;11.484;2022-12-18T10:01:14;21.40;;;10.83;;
43664;SDS011;29263;48.172;11.484;2022-12-18T10:03:45;21.50;;;10.63;;
43664;SDS011;29263;48.172;11.484;2022-12-18T10:06:14;22.40;;;11.27;;
43664;SDS011;29263;48.172;11.484;2022-12-18T10:08:51;21.13;;;10.50;;
43664;SDS011;29263;48.172;11.484;2022-12-18T10:11:27;24.07;;;11.47;;
43664;SDS011;29263;48.172;11.484;2022-12-18T10:16:59;24.73;;;10.67;;
43664;SDS011;29263;48.172;11.484;2022-12-18T10:27:18;21.83;;;10.87;;
43664;SDS011;29263;48.172;11.484;2022-12-18T10:29:48;20.70;;;10.93;;
43664;SDS011;29263;48.172;11.484;2022-12-18T10:32:15;22.33;;;10.27;;
43664;SDS011;29263;48.172;11.484;2022-12-18T10:34:46;22.52;;;10.98;;
43664;SDS011;29263;48.172;11.484;2022-12-18T10:37:15;22.83;;;11.17;;
43664;SDS011;29263;48.172;11.484;2022-12-18T10:42:32;23.03;;;10.57;;
43664;SDS011;29263;48.172;11.484;2022-12-18T10:45:14;21.50;;;11.43;;
43664;SDS011;29263;48.172;11.484;2022-12-18T10:47:46;25.53;;;10.93;;
43664;SDS011;29263;48.172;11.484;2022-12-18T10:50:22;21.43;;;10.03;;
43664;SDS011;29263;48.172;11.484;2022-12-18T10:52:58;23.73;;;10.73;;
43664;SDS011;29263;48.172;11.484;2022-12-18T10:55:38;25.30;;;11.43;;
43664;SDS011;29263;48.172;11.484;2022-12-18T10:58:16;22.20;;;10.53;;
43664;SDS011;29263;48.172;11.484;2022-12-18T11:01:07;22.02;;;10.63;;
43664;SDS011;29263;48.172;11.484;2022-12-18T11:06:20;22.83;;;11.53;;
43664;SDS011;29263;48.172;11.484;2022-12-18T11:09:02;24.13;;;11.73;;
43664;SDS011;29263;48.172;11.484;2022-12-18T11:11:29;20.53;;;10.53;;
43664;SDS011;29263;48.172;11.484;2022-12-18T11:16:28;23.90;;;11.43;;
43664;SDS011;29263;48.172;11.484;2022-12-18T11:19:17;25.17;;;11.33;;
43664;SDS011;29263;48.172;11.484;2022-12-18T11:21:56;24.73;;;11.38;;
43664;SDS011;29263;48.172;11.484;2022-12-18T11:26:56;25.67;;;11.53;;
43664;SDS011;29263;48.172;11.484;2022-12-18T11:29:46;23.17;;;11.33;;
43664;SDS011;29263;48.172;11.484;2022-12-18T11:32:20;25.35;;;11.68;;
43664;SDS011;29263;48.172;11.484;2022-12-18T11:34:59;25.63;;;12.43;;
43664;SDS011;29263;48.172;11.484;2022-12-18T11:37:49;26.93;;;12.30;;
43664;SDS011;29263;48.172;11.484;2022-12-18T11:40:24;21.23;;;10.83;;
43664;SDS011;29263;48.172;11.484;2022-12-18T11:42:59;24.23;;;12.07;;
43664;SDS011;29263;48.172;11.484;2022-12-18T11:45:34;23.93;;;12.60;;
43664;SDS011;29263;48.172;11.484;2022-12-18T11:48:18;25.63;;;11.53;;
43664;SDS011;29263;48.172;11.484;2022-12-18T11:50:50;30.10;;;12.93;;
43664;SDS011;29263;48.172;11.484;2022-12-18T11:53:18;28.17;;;13.40;;
43664;SDS011;29263;48.172;11.484;2022-12-18T11:55:49;23.67;;;11.47;;
43664;SDS011;29263;48.172;11.484;2022-12-18T11:58:47;28.97;;;14.27;;
43664;SDS011;29263;48.172;11.484;2022-12-18T12:01:50;34.75;;;16.30;;
43664;SDS011;29263;48.172;11.484;2022-12-18T12:12:37;26.30;;;13.43;;
43664;SDS011;29263;48.172;11.484;2022-12-18T12:17:55;25.60;;;11.63;;
43664;SDS011;29263;48.172;11.484;2022-12-18T12:23:42;26.23;;;12.48;;
43664;SDS011;29263;48.172;11.484;2022-12-18T12:34:23;24.57;;;11.77;;
43664;SDS011;29263;48.172;11.484;2022-12-18T12:39:29;24.00;;;11.90;;
43664;SDS011;29263;48.172;11.484;2022-12-18T12:41:59;24.00;;;12.00;;
43664;SDS011;29263;48.172;11.484;2022-12-18T12:44:46;25.80;;;12.10;;
43664;SDS011;29263;48.172;11.484;2022-12-18T12:47:21;25.03;;;12.03;;
43664;SDS011;29263;48.172;11.484;2022-12-18T12:49:51;23.93;;;11.57;;
43664;SDS011;29263;48.172;11.484;2022-12-18T12:52:30;25.80;;;11.87;;
43664;SDS011;29263;48.172;11.484;2022-12-18T12:55:05;20.13;;;9.47;;
43664;SDS011;29263;48.172;11.484;2022-12-18T12:57:41;22.33;;;10.67;;
43664;SDS011;29263;48.172;11.484;2022-12-18T13:00:16;22.80;;;10.97;;
43664;SDS011;29263;48.172;11.484;2022-12-18T13:08:06;21.63;;;10.77;;
43664;SDS011;29263;48.172;11.484;2022-12-18T13:10:38;23.00;;;10.53;;
43664;SDS011;29263;48.172;11.484;2022-12-18T13:13:09;18.38;;;9.75;;
43664;SDS011;29263;48.172;11.484;2022-12-18T13:15:44;20.23;;;10.03;;
43664;SDS011;29263;48.172;11.484;2022-12-18T13:18:13;19.23;;;9.93;;
43664;SDS011;29263;48.172;11.484;2022-12-18T13:20:40;19.27;;;10.30;;
43664;SDS011;29263;48.172;11.484;2022-12-18T13:25:50;21.63;;;9.50;;
43664;SDS011;29263;48.172;11.484;2022-12-18T13:31:11;21.63;;;10.00;;
43664;SDS011;29263;48.172;11.484;2022-12-18T13:34:09;25.93;;;9.97;;
43664;SDS011;29263;48.172;11.484;2022-12-18T13:36:41;21.60;;;10.10;;
43664;SDS011;29263;48.172;11.484;2022-12-18T13:44:33;20.60;;;10.03;;
43664;SDS011;29263;48.172;11.484;2022-12-18T13:47:05;22.87;;;11.10;;
43664;SDS011;29263;48.172;11.484;2022-12-18T13:49:50;19.73;;;9.77;;
43664;SDS011;29263;48.172;11.484;2022-12-18T13:52:38;19.27;;;9.83;;
43664;SDS011;29263;48.172;11.484;2022-12-18T13:55:05;22.20;;;10.07;;
43664;SDS011;29263;48.172;11.484;2022-12-18T13:57:40;21.43;;;10.87;;
43664;SDS011;29263;48.172;11.484;2022-12-18T14:02:46;22.77;;;10.50;;
43664;SDS011;29263;48.172;11.484;2022-12-18T14:05:25;20.47;;;11.23;;
43664;SDS011;29263;48.172;11.484;2022-12-18T14:07:54;21.87;;;10.17;;
43664;SDS011;29263;48.172;11.484;2022-12-18T14:10:35;29.23;;;11.17;;
43664;SDS011;29263;48.172;11.484;2022-12-18T14:13:09;23.37;;;10.63;;
43664;SDS011;29263;48.172;11.484;2022-12-18T14:15:43;20.90;;;10.13;;
43664;SDS011;29263;48.172;11.484;2022-12-18T14:20:46;24.47;;;10.13;;
43664;SDS011;29263;48.172;11.484;2022-12-18T14:26:00;23.23;;;11.07;;
43664;SDS011;29263;48.172;11.484;2022-12-18T14:28:46;22.50;;;11.20;;
43664;SDS011;29263;48.172;11.484;2022-12-18T14:31:19;18.73;;;9.20;;
43664;SDS011;29263;48.172;11.484;2022-12-18T14:33:45;22.60;;;10.27;;
43664;SDS011;29263;48.172;11.484;2022-12-18T14:36:14;21.73;;;10.70;;
43664;SDS011;29263;48.172;11.484;2022-12-18T14:38:42;22.13;;;10.70;;
43664;SDS011;29263;48.172;11.484;2022-12-18T14:41:13;24.07;;;10.70;;
43664;SDS011;29263;48.172;11.484;2022-12-18T14:43:41;22.00;;;10.73;;
43664;SDS011;29263;48.172;11.484;2022-12-18T14:49:05;23.97;;;10.27;;
43664;SDS011;29263;48.172;11.484;2022-12-18T14:51:47;22.57;;;11.00;;
43664;SDS011;29263;48.172;11.484;2022-12-18T14:54:18;21.07;;;9.53;;
43664;SDS011;29263;48.172;11.484;2022-12-18T14:56:48;22.77;;;10.60;;
43664;SDS011;29263;48.172;11.484;2022-12-18T14:59:18;22.77;;;10.57;;
43664;SDS011;29263;48.172;11.484;2022-12-18T15:01:48;24.67;;;10.50;;
43664;SDS011;29263;48.172;11.484;2022-12-18T15:04:26;25.07;;;11.47;;
43664;SDS011;29263;48.172;11.484;2022-12-18T15:13:05;18.60;;;9.73;;
43664;SDS011;29263;48.172;11.484;2022-12-18T15:20:54;26.13;;;11.73;;
43664;SDS011;29263;48.172;11.484;2022-12-18T15:26:08;24.20;;;10.97;;
43664;SDS011;29263;48.172;11.484;2022-12-18T15:28:36;25.47;;;11.50;;
43664;SDS011;29263;48.172;11.484;2022-12-18T15:36:19;25.97;;;11.37;;
43664;SDS011;29263;48.172;11.484;2022-12-18T15:38:47;23.60;;;12.27;;
43664;SDS011;29263;48.172;11.484;2022-12-18T15:41:14;25.90;;;11.70;;
43664;SDS011;29263;48.172;11.484;2022-12-18T15:43:41;23.53;;;11.70;;
43664;SDS011;29263;48.172;11.484;2022-12-18T15:51:32;24.57;;;10.93;;
43664;SDS011;29263;48.172;11.484;2022-12-18T15:54:00;21.27;;;10.03;;
43664;SDS011;29263;48.172;11.484;2022-12-18T15:56:30;25.52;;;12.00;;
43664;SDS011;29263;48.172;11.484;2022-12-18T15:59:16;25.87;;;11.10;;
43664;SDS011;29263;48.172;11.484;2022-12-18T16:01:44;24.02;;;11.88;;
43664;SDS011;29263;48.172;11.484;2022-12-18T16:04:12;25.58;;;11.43;;
43664;SDS011;29263;48.172;11.484;2022-12-18T16:06:39;24.03;;;11.47;;
43664;SDS011;29263;48.172;11.484;2022-12-18T16:09:06;23.23;;;11.13;;
43664;SDS011;29263;48.172;11.484;2022-12-18T16:11:32;24.00;;;11.50;;
43664;SDS011;29263;48.172;11.484;2022-12-18T16:14:21;29.07;;;12.53;;
43664;SDS011;29263;48.172;11.484;2022-12-18T16:16:52;24.97;;;12.37;;
43664;SDS011;29263;48.172;11.484;2022-12-18T16:19:19;26.13;;;11.27;;
43664;SDS011;29263;48.172;11.484;2022-12-18T16:21:46;22.13;;;11.07;;
43664;SDS011;29263;48.172;11.484;2022-12-18T16:24:20;27.37;;;12.70;;
43664;SDS011;29263;48.172;11.484;2022-12-18T16:26:48;24.83;;;11.70;;